KGCC/GCC METAR and TAF weather

Enter ICAO airport designator
Station Type Date Time Source
KGCC METAR 2019/08/21 22:53 UTC NOAA

KGCC 212253Z AUTO 13010KT 10SM CLR 27/14 A3005 RMK AO2 SLP126 T02670139


Station Type Date Time Source
KGCC Decoded METAR 2019/08/21 22:53 UTC NOAA

Station name not available
Aug 21, 2019 - 06:53 PM EDT / 2019.08.21 2253 UTC
Wind: from the SE (130 degrees) at 12 MPH (10 KT):0
Visibility: 10 mile(s):0
Sky conditions: clear
Temperature: 80.1 F (26.7 C)
Dew Point: 57.0 F (13.9 C)
Relative Humidity: 45%
Pressure (altimeter): 30.05 in. Hg (1017 hPa)
ob: KGCC 212253Z AUTO 13010KT 10SM CLR 27/14 A3005 RMK AO2 SLP126 T02670139
cycle: 23

Station Type Date Time Source
KGCC TAF 2019/08/21 18:22 UTC NOAA

TAF KGCC 211720Z 2118/2218 15016G23KT P6SM SCT150
FM220800 17019G27KT P6SM SCT100

Example: see airport list